createdAt,value
2024-03-27T00:01:10.889Z,98946.19
2024-03-27T00:03:45.571Z,98936.41
2024-03-27T00:06:12.259Z,98941.41
2024-03-27T00:08:39.126Z,98938.06
2024-03-27T00:11:05.622Z,98944.13
2024-03-27T00:13:32.696Z,98933.94
2024-03-27T00:15:59.300Z,98930.22
2024-03-27T00:18:26.406Z,98932.91
2024-03-27T00:20:53.244Z,98941.03
2024-03-27T00:23:20.045Z,98927.50
2024-03-27T00:25:46.624Z,98923.78
2024-03-27T00:28:13.463Z,98918.63
2024-03-27T00:30:40.374Z,98927.75
2024-03-27T00:33:07.402Z,98930.66
2024-03-27T00:35:33.860Z,98921.72
2024-03-27T00:38:00.764Z,98918.75
2024-03-27T00:40:27.535Z,98920.03
2024-03-27T00:42:55.914Z,98916.03
2024-03-27T00:45:22.927Z,98920.03
2024-03-27T00:47:49.848Z,98915.66
2024-03-27T00:50:16.332Z,98912.50
2024-03-27T00:52:43.215Z,98907.91
2024-03-27T00:55:09.684Z,98908.56
2024-03-27T00:57:36.604Z,98905.41
2024-03-27T01:00:03.619Z,98894.59
2024-03-27T01:02:30.459Z,98891.22
2024-03-27T01:04:57.072Z,98884.16
2024-03-27T01:07:24.119Z,98885.72
2024-03-27T01:09:50.655Z,98892.84
2024-03-27T01:12:17.451Z,98880.91
2024-03-27T01:14:44.166Z,98881.09
2024-03-27T01:17:10.795Z,98881.28
2024-03-27T01:19:37.576Z,98868.97
2024-03-27T01:22:04.367Z,98875.22
2024-03-27T01:24:30.969Z,98877.72
2024-03-27T01:26:57.923Z,98863.56
2024-03-27T01:29:24.272Z,98868.53
2024-03-27T01:31:51.116Z,98860.78
2024-03-27T01:34:17.644Z,98854.75
2024-03-27T01:36:44.463Z,98859.75
2024-03-27T01:39:10.903Z,98856.59
2024-03-27T01:41:38.026Z,98853.06
2024-03-27T01:44:04.493Z,98858.47
2024-03-27T01:46:31.672Z,98851.78
2024-03-27T01:48:58.185Z,98856.34
2024-03-27T01:51:25.026Z,98855.13
2024-03-27T01:53:51.660Z,98850.47
2024-03-27T01:56:19.361Z,98839.59
2024-03-27T01:58:46.746Z,98845.19
2024-03-27T02:01:13.494Z,98829.53
2024-03-27T02:03:40.732Z,98833.28
2024-03-27T02:06:08.666Z,98826.19
2024-03-27T02:08:35.609Z,98831.16
2024-03-27T02:11:02.951Z,98827.59
2024-03-27T02:13:30.160Z,98830.69
2024-03-27T02:16:01.095Z,98815.88
2024-03-27T02:18:27.820Z,98827.34
2024-03-27T02:21:22.471Z,98825.59
2024-03-27T02:24:17.801Z,98815.63
2024-03-27T02:26:45.124Z,98816.09
2024-03-27T02:29:11.687Z,98817.59
2024-03-27T02:31:39.127Z,98811.34
2024-03-27T02:34:06.105Z,98815.09
2024-03-27T02:36:33.112Z,98817.53
2024-03-27T02:38:59.874Z,98813.53
2024-03-27T02:41:26.984Z,98802.13
2024-03-27T02:43:54.298Z,98813.31
2024-03-27T02:46:21.189Z,98802.72
2024-03-27T02:48:48.267Z,98813.28
2024-03-27T02:51:15.260Z,98803.69
2024-03-27T02:53:41.931Z,98807.34
2024-03-27T02:56:08.705Z,98802.38
2024-03-27T02:58:35.233Z,98801.28
2024-03-27T03:01:02.150Z,98798.78
2024-03-27T03:03:28.968Z,98792.16
2024-03-27T03:05:59.190Z,98796.91
2024-03-27T03:08:25.693Z,98800.44
2024-03-27T03:10:53.332Z,98802.13
2024-03-27T03:13:20.224Z,98799.34
2024-03-27T03:15:46.957Z,98792.63
2024-03-27T03:18:13.522Z,98785.19
2024-03-27T03:20:40.258Z,98798.88
2024-03-27T03:23:06.871Z,98798.50
2024-03-27T03:25:34.129Z,98803.44
2024-03-27T03:28:00.889Z,98788.91
2024-03-27T03:30:28.091Z,98789.28
2024-03-27T03:32:54.946Z,98787.34
2024-03-27T03:35:21.712Z,98789.38
2024-03-27T03:37:48.129Z,98783.53
2024-03-27T03:40:15.277Z,98778.31
2024-03-27T03:42:41.613Z,98776.81
2024-03-27T03:45:08.632Z,98784.09
2024-03-27T03:47:35.360Z,98778.03
2024-03-27T03:50:02.444Z,98776.72
2024-03-27T03:52:28.912Z,98776.56
2024-03-27T03:54:55.712Z,98769.66
2024-03-27T03:57:22.054Z,98769.00
2024-03-27T03:59:48.769Z,98770.31
2024-03-27T04:02:15.490Z,98761.94
2024-03-27T04:04:42.421Z,98755.25
2024-03-27T04:07:09.121Z,98760.25
2024-03-27T04:09:35.904Z,98756.25
2024-03-27T04:12:02.484Z,98759.34
2024-03-27T04:14:29.434Z,98759.34
2024-03-27T04:16:55.826Z,98754.13
2024-03-27T04:19:22.661Z,98751.78
2024-03-27T04:21:49.030Z,98745.09
2024-03-27T04:24:16.778Z,98752.81
2024-03-27T04:26:43.705Z,98747.16
2024-03-27T04:29:11.216Z,98743.97
2024-03-27T04:31:38.552Z,98742.59
2024-03-27T04:34:06.670Z,98731.78
2024-03-27T04:36:33.558Z,98731.59
2024-03-27T04:39:00.640Z,98731.41
2024-03-27T04:41:27.380Z,98727.22
2024-03-27T04:43:54.284Z,98721.84
2024-03-27T04:46:21.063Z,98720.34
2024-03-27T04:48:47.796Z,98713.63
2024-03-27T04:51:14.273Z,98710.75
2024-03-27T04:53:41.171Z,98705.72
2024-03-27T04:56:08.233Z,98698.94
2024-03-27T04:58:34.975Z,98701.06
2024-03-27T05:01:01.604Z,98689.50
2024-03-27T05:03:28.531Z,98684.56
2024-03-27T05:05:55.371Z,98693.59
2024-03-27T05:08:22.006Z,98683.69
2024-03-27T05:10:48.515Z,98687.13
2024-03-27T05:13:16.086Z,98685.72
2024-03-27T05:15:42.783Z,98687.19
2024-03-27T05:18:09.692Z,98684.50
2024-03-27T05:20:37.134Z,98685.19
2024-03-27T05:23:03.994Z,98676.53
2024-03-27T05:25:30.371Z,98683.19
2024-03-27T05:27:59.145Z,98676.38
2024-03-27T05:30:26.085Z,98684.47
2024-03-27T05:32:52.969Z,98680.59
2024-03-27T05:35:19.500Z,98677.06
2024-03-27T05:37:49.100Z,98677.50
2024-03-27T05:40:15.916Z,98669.59
2024-03-27T05:42:45.597Z,98676.50
2024-03-27T05:45:12.467Z,98674.69
2024-03-27T05:47:42.507Z,98677.50
2024-03-27T05:50:10.466Z,98670.22
2024-03-27T05:52:37.500Z,98681.97
2024-03-27T05:55:04.523Z,98674.50
2024-03-27T05:57:31.310Z,98673.38
2024-03-27T05:59:57.786Z,98661.66
2024-03-27T06:02:24.465Z,98667.94
2024-03-27T06:04:50.984Z,98665.47
2024-03-27T06:07:17.715Z,98664.16
2024-03-27T06:09:45.138Z,98650.63
2024-03-27T06:12:12.474Z,98653.81
2024-03-27T06:14:38.966Z,98656.56
2024-03-27T06:17:05.721Z,98650.34
2024-03-27T06:19:32.218Z,98655.19
2024-03-27T06:21:59.006Z,98650.81
2024-03-27T06:24:25.383Z,98651.06
2024-03-27T06:26:53.813Z,98656.06
2024-03-27T06:29:21.742Z,98650.88
2024-03-27T06:31:48.894Z,98652.72
2024-03-27T06:34:15.315Z,98652.34
2024-03-27T06:36:41.987Z,98650.97
2024-03-27T06:39:12.906Z,98648.16
2024-03-27T06:41:40.589Z,98655.50
2024-03-27T06:44:09.550Z,98649.88
2024-03-27T06:46:39.420Z,98645.13
2024-03-27T06:49:18.656Z,98643.97
2024-03-27T06:51:46.539Z,98639.47
2024-03-27T06:54:13.169Z,98637.09
2024-03-27T06:56:40.121Z,98646.34
2024-03-27T06:59:07.526Z,98645.09
2024-03-27T07:01:35.866Z,98643.38
2024-03-27T07:04:04.128Z,98646.91
2024-03-27T07:06:31.350Z,98645.50
2024-03-27T07:08:58.480Z,98638.97
2024-03-27T07:11:25.363Z,98624.31
2024-03-27T07:13:53.611Z,98630.53
2024-03-27T07:16:22.197Z,98626.34
2024-03-27T07:18:48.657Z,98628.63
2024-03-27T07:21:15.438Z,98629.13
2024-03-27T07:23:41.782Z,98629.19
2024-03-27T07:26:09.312Z,98625.47
2024-03-27T07:28:36.231Z,98637.44
2024-03-27T07:31:07.334Z,98628.44
2024-03-27T07:33:34.395Z,98620.97
2024-03-27T07:36:01.302Z,98613.28
2024-03-27T07:38:27.996Z,98610.09
2024-03-27T07:40:54.916Z,98610.25
2024-03-27T07:43:21.860Z,98605.56
2024-03-27T07:45:48.745Z,98602.66
2024-03-27T07:48:15.400Z,98609.00
2024-03-27T07:50:42.422Z,98601.38
2024-03-27T07:53:08.844Z,98604.13
2024-03-27T07:55:35.562Z,98604.72
2024-03-27T07:58:01.906Z,98608.69
2024-03-27T08:00:29.000Z,98608.63
2024-03-27T08:02:55.560Z,98604.63
2024-03-27T08:05:22.310Z,98590.06
2024-03-27T08:07:48.634Z,98583.25
2024-03-27T08:10:15.724Z,98568.09
2024-03-27T08:12:42.241Z,98555.88
2024-03-27T08:15:11.346Z,98564.00
2024-03-27T08:17:38.132Z,98567.00
2024-03-27T08:20:06.546Z,98566.72
2024-03-27T08:22:33.102Z,98565.63
2024-03-27T08:24:59.927Z,98562.66
2024-03-27T08:27:26.527Z,98563.31
2024-03-27T08:29:54.494Z,98562.06
2024-03-27T08:32:21.393Z,98564.69
2024-03-27T08:34:48.080Z,98569.19
2024-03-27T08:37:14.398Z,98567.50
2024-03-27T08:39:42.875Z,98571.34
2024-03-27T08:42:09.366Z,98566.09
2024-03-27T08:44:36.089Z,98568.03
2024-03-27T08:47:02.657Z,98566.53
2024-03-27T08:49:29.485Z,98558.50
2024-03-27T08:51:56.487Z,98559.69
2024-03-27T08:54:23.275Z,98559.72
2024-03-27T08:56:49.999Z,98563.25
2024-03-27T08:59:16.838Z,98558.53
2024-03-27T09:01:43.262Z,98559.28
2024-03-27T09:04:10.031Z,98568.03
2024-03-27T09:06:37.446Z,98571.38
2024-03-27T09:09:05.586Z,98570.09
2024-03-27T09:11:32.498Z,98568.22
2024-03-27T09:13:59.495Z,98567.00
2024-03-27T09:16:26.116Z,98578.66
2024-03-27T09:18:53.021Z,98585.75
2024-03-27T09:21:19.438Z,98580.91
2024-03-27T09:23:46.471Z,98579.59
2024-03-27T09:26:12.941Z,98575.78
2024-03-27T09:28:39.729Z,98577.91
2024-03-27T09:31:06.245Z,98587.31
2024-03-27T09:33:33.145Z,98592.75
2024-03-27T09:36:01.596Z,98584.47
2024-03-27T09:38:33.729Z,98591.22
2024-03-27T09:41:03.106Z,98586.69
2024-03-27T09:43:32.563Z,98592.84
2024-03-27T09:45:59.375Z,98591.19
2024-03-27T09:48:26.521Z,98597.94
2024-03-27T09:50:56.259Z,98596.78
2024-03-27T09:53:23.020Z,98591.41
2024-03-27T09:55:50.725Z,98595.78
2024-03-27T09:58:18.974Z,98588.63
2024-03-27T10:00:45.734Z,98579.09
2024-03-27T10:03:14.949Z,98591.50
2024-03-27T10:05:44.102Z,98589.47
2024-03-27T10:08:10.765Z,98583.84
2024-03-27T10:10:37.509Z,98580.59
2024-03-27T10:13:05.017Z,98594.34
2024-03-27T10:15:33.683Z,98587.31
2024-03-27T10:18:00.436Z,98601.53
2024-03-27T10:20:26.824Z,98593.16
2024-03-27T10:22:53.525Z,98596.09
2024-03-27T10:25:20.979Z,98592.75
2024-03-27T10:27:48.613Z,98592.88
2024-03-27T10:30:15.237Z,98582.44
2024-03-27T10:32:41.925Z,98591.38
2024-03-27T10:35:09.196Z,98577.63
2024-03-27T10:37:36.361Z,98578.63
2024-03-27T10:40:08.314Z,98575.72
2024-03-27T10:42:39.345Z,98583.25
2024-03-27T10:45:07.091Z,98578.00
2024-03-27T10:47:34.762Z,98572.50
2024-03-27T10:50:04.955Z,98589.81
2024-03-27T10:52:32.833Z,98581.09
2024-03-27T10:55:01.590Z,98573.31
2024-03-27T10:57:28.776Z,98560.44
2024-03-27T10:59:57.836Z,98564.25
2024-03-27T11:02:24.599Z,98560.94
2024-03-27T11:05:05.006Z,98561.41
2024-03-27T11:07:35.975Z,98563.00
2024-03-27T11:10:02.999Z,98564.03
2024-03-27T11:12:30.459Z,98558.19
2024-03-27T11:15:04.599Z,98555.06
2024-03-27T11:17:32.476Z,98564.34
2024-03-27T11:20:05.274Z,98560.22
2024-03-27T11:22:36.491Z,98553.97
2024-03-27T11:25:09.891Z,98544.91
2024-03-27T11:27:38.031Z,98542.75
2024-03-27T11:30:04.993Z,98538.41
2024-03-27T11:32:37.687Z,98536.84
2024-03-27T11:35:05.082Z,98535.22
2024-03-27T11:37:31.998Z,98530.09
2024-03-27T11:40:18.247Z,98535.19
2024-03-27T11:42:45.210Z,98542.63
2024-03-27T11:45:11.967Z,98532.25
2024-03-27T11:47:39.183Z,98546.56
2024-03-27T11:50:08.482Z,98544.50
2024-03-27T11:52:35.495Z,98550.28
2024-03-27T11:55:01.992Z,98538.06
2024-03-27T11:57:30.237Z,98544.16
2024-03-27T12:00:05.609Z,98545.09
2024-03-27T12:02:35.116Z,98542.84
2024-03-27T12:05:04.670Z,98538.06
2024-03-27T12:07:36.086Z,98538.50
2024-03-27T12:10:09.844Z,98533.88
2024-03-27T12:12:36.858Z,98534.56
2024-03-27T12:15:03.713Z,98533.28
2024-03-27T12:17:40.057Z,98533.25
2024-03-27T12:20:12.556Z,98533.50
2024-03-27T12:22:39.296Z,98527.78
2024-03-27T12:25:05.999Z,98527.06
2024-03-27T12:27:33.855Z,98515.97
2024-03-27T12:30:00.729Z,98501.22
2024-03-27T12:32:29.034Z,98504.28
2024-03-27T12:34:57.472Z,98504.41
2024-03-27T12:37:25.962Z,98504.72
2024-03-27T12:39:52.333Z,98502.44
2024-03-27T12:42:19.071Z,98512.31
2024-03-27T12:44:45.425Z,98496.88
2024-03-27T12:47:12.100Z,98500.31
2024-03-27T12:49:38.495Z,98485.53
2024-03-27T12:52:05.164Z,98484.16
2024-03-27T12:54:32.704Z,98488.31
2024-03-27T12:57:00.830Z,98485.63
2024-03-27T12:59:27.365Z,98481.16
2024-03-27T13:01:54.522Z,98481.69
2024-03-27T13:04:22.500Z,98472.66
2024-03-27T13:06:49.463Z,98455.28
2024-03-27T13:09:16.006Z,98452.84
2024-03-27T13:11:44.124Z,98457.31
2024-03-27T13:14:10.789Z,98458.63
2024-03-27T13:16:37.909Z,98452.28
2024-03-27T13:19:05.064Z,98446.72
2024-03-27T13:21:32.221Z,98457.72
2024-03-27T13:23:58.803Z,98454.94
2024-03-27T13:26:26.184Z,98440.38
2024-03-27T13:28:52.775Z,98431.59
2024-03-27T13:31:20.172Z,98431.03
2024-03-27T13:33:46.795Z,98430.25
2024-03-27T13:36:13.816Z,98428.91
2024-03-27T13:38:40.427Z,98426.06
2024-03-27T13:41:07.384Z,98416.47
2024-03-27T13:43:33.763Z,98420.25
2024-03-27T13:46:01.533Z,98413.13
2024-03-27T13:48:29.581Z,98415.34
2024-03-27T13:50:57.099Z,98413.63
2024-03-27T13:53:23.611Z,98416.38
2024-03-27T13:55:50.376Z,98406.41
2024-03-27T13:58:16.917Z,98402.81
2024-03-27T14:00:43.671Z,98402.44
2024-03-27T14:03:10.069Z,98394.66
2024-03-27T14:05:37.449Z,98389.78
2024-03-27T14:08:06.070Z,98379.94
2024-03-27T14:10:34.393Z,98382.69
2024-03-27T14:13:02.158Z,98379.97
2024-03-27T14:15:29.558Z,98380.47
2024-03-27T14:17:56.144Z,98376.13
2024-03-27T14:20:23.135Z,98374.47
2024-03-27T14:22:49.575Z,98377.47
2024-03-27T14:25:17.226Z,98361.28
2024-03-27T14:27:43.610Z,98365.66
2024-03-27T14:30:10.933Z,98367.81
2024-03-27T14:32:37.395Z,98364.75
2024-03-27T14:35:05.029Z,98368.97
2024-03-27T14:37:31.519Z,98364.66
2024-03-27T14:39:58.286Z,98358.88
2024-03-27T14:42:25.643Z,98358.88
2024-03-27T14:44:52.267Z,98359.75
2024-03-27T14:47:18.845Z,98363.88
2024-03-27T14:49:45.755Z,98358.72
2024-03-27T14:52:12.485Z,98355.66
2024-03-27T14:54:39.203Z,98354.06
2024-03-27T14:57:05.749Z,98356.25
2024-03-27T14:59:32.642Z,98354.00
2024-03-27T15:01:59.191Z,98358.41
2024-03-27T15:04:26.195Z,98367.41
2024-03-27T15:06:53.419Z,98366.78
2024-03-27T15:09:22.048Z,98365.03
2024-03-27T15:11:50.964Z,98356.47
2024-03-27T15:14:17.661Z,98357.81
2024-03-27T15:16:44.111Z,98355.63
2024-03-27T15:19:11.055Z,98352.25
2024-03-27T15:21:37.565Z,98350.81
2024-03-27T15:24:05.255Z,98349.72
2024-03-27T15:26:31.974Z,98354.91
2024-03-27T15:28:59.172Z,98348.56
2024-03-27T15:31:25.658Z,98341.44
2024-03-27T15:33:52.533Z,98344.00
2024-03-27T15:36:19.135Z,98342.06
2024-03-27T15:38:46.000Z,98342.00
2024-03-27T15:41:13.528Z,98341.19
2024-03-27T15:43:40.260Z,98339.50
2024-03-27T15:46:06.687Z,98338.59
2024-03-27T15:48:33.743Z,98338.81
2024-03-27T15:51:00.407Z,98337.69
2024-03-27T15:53:27.316Z,98335.16
2024-03-27T15:55:53.765Z,98335.41
2024-03-27T15:58:20.656Z,98337.63
2024-03-27T16:00:48.599Z,98345.84
2024-03-27T16:03:15.422Z,98342.13
2024-03-27T16:05:42.206Z,98352.09
2024-03-27T16:08:09.031Z,98354.31
2024-03-27T16:10:35.793Z,98361.84
2024-03-27T16:13:02.943Z,98363.75
2024-03-27T16:15:29.518Z,98360.47
2024-03-27T16:17:56.420Z,98355.81
2024-03-27T16:20:23.154Z,98359.34
2024-03-27T16:22:51.985Z,98360.44
2024-03-27T16:25:19.599Z,98362.75
2024-03-27T16:27:46.346Z,98371.25
2024-03-27T16:30:12.834Z,98367.31
2024-03-27T16:32:39.586Z,98370.25
2024-03-27T16:35:06.459Z,98360.31
2024-03-27T16:37:33.213Z,98370.91
2024-03-27T16:39:59.937Z,98367.00
2024-03-27T16:42:26.913Z,98354.59
2024-03-27T16:44:53.458Z,98360.91
2024-03-27T16:47:20.384Z,98367.09
2024-03-27T16:49:47.753Z,98358.22
2024-03-27T16:52:14.777Z,98367.22
2024-03-27T16:54:44.675Z,98349.81
2024-03-27T16:57:12.185Z,98354.72
2024-03-27T16:59:38.588Z,98357.13
2024-03-27T17:02:05.729Z,98366.94
2024-03-27T17:04:32.116Z,98363.81
2024-03-27T17:06:58.845Z,98359.09
2024-03-27T17:09:25.276Z,98362.00
2024-03-27T17:11:52.189Z,98359.19
2024-03-27T17:14:18.578Z,98356.88
2024-03-27T17:16:45.603Z,98353.00
2024-03-27T17:19:12.029Z,98362.44
2024-03-27T17:21:39.037Z,98365.09
2024-03-27T17:24:06.371Z,98365.03
2024-03-27T17:26:33.997Z,98361.13
2024-03-27T17:29:01.724Z,98368.91
2024-03-27T17:31:28.506Z,98374.31
2024-03-27T17:33:54.918Z,98376.22
2024-03-27T17:36:21.903Z,98376.28
2024-03-27T17:38:51.089Z,98381.41
2024-03-27T17:41:18.072Z,98376.34
2024-03-27T17:43:44.638Z,98377.56
2024-03-27T17:46:11.335Z,98379.38
2024-03-27T17:48:37.886Z,98380.94
2024-03-27T17:51:05.018Z,98384.66
2024-03-27T17:53:35.229Z,98384.81
2024-03-27T17:56:03.703Z,98386.22
2024-03-27T17:58:32.276Z,98394.41
2024-03-27T18:01:12.867Z,98387.28
2024-03-27T18:03:40.040Z,98392.41
2024-03-27T18:06:09.205Z,98386.94
2024-03-27T18:08:36.117Z,98397.03
2024-03-27T18:11:04.388Z,98392.06
2024-03-27T18:13:31.312Z,98389.59
2024-03-27T18:16:03.258Z,98391.25
2024-03-27T18:18:30.531Z,98393.88
2024-03-27T18:20:59.003Z,98389.38
2024-03-27T18:23:26.128Z,98385.47
2024-03-27T18:25:53.252Z,98387.03
2024-03-27T18:28:21.725Z,98391.91
2024-03-27T18:31:00.422Z,98386.69
2024-03-27T18:33:27.625Z,98385.97
2024-03-27T18:35:54.629Z,98389.88
2024-03-27T18:38:21.534Z,98392.94
2024-03-27T18:40:48.923Z,98392.94
2024-03-27T18:43:15.485Z,98392.94
2024-03-27T18:45:48.345Z,98395.09
2024-03-27T18:48:14.838Z,98394.16
2024-03-27T18:50:41.909Z,98395.47
2024-03-27T18:53:08.499Z,98396.78
2024-03-27T18:55:35.515Z,98396.78
2024-03-27T18:58:03.521Z,98402.50
2024-03-27T19:00:30.403Z,98400.81
2024-03-27T19:02:57.088Z,98398.00
2024-03-27T19:05:23.851Z,98404.28
2024-03-27T19:07:50.265Z,98398.94
2024-03-27T19:10:17.098Z,98399.09
2024-03-27T19:12:43.663Z,98397.06
2024-03-27T19:15:10.608Z,98392.09
2024-03-27T19:17:37.047Z,98383.91
2024-03-27T19:20:04.860Z,98381.06
2024-03-27T19:22:34.025Z,98387.88
2024-03-27T19:25:01.034Z,98391.09
2024-03-27T19:27:27.833Z,98380.84
2024-03-27T19:29:54.572Z,98375.28
2024-03-27T19:32:21.242Z,98374.69
2024-03-27T19:34:48.508Z,98378.97
2024-03-27T19:37:15.296Z,98385.72
2024-03-27T19:39:42.054Z,98376.38
2024-03-27T19:42:09.998Z,98370.66
2024-03-27T19:44:36.982Z,98373.88
2024-03-27T19:47:03.511Z,98380.53
2024-03-27T19:49:30.387Z,98368.66
2024-03-27T19:52:09.586Z,98371.50
2024-03-27T19:54:42.140Z,98370.69
2024-03-27T19:57:08.552Z,98362.97
2024-03-27T19:59:35.468Z,98352.78
2024-03-27T20:02:01.920Z,98356.22
2024-03-27T20:04:28.595Z,98351.59
2024-03-27T20:06:55.237Z,98351.13
2024-03-27T20:09:22.145Z,98352.88
2024-03-27T20:11:48.511Z,98352.75
2024-03-27T20:14:15.343Z,98347.06
2024-03-27T20:16:43.002Z,98350.03
2024-03-27T20:19:09.854Z,98352.16
2024-03-27T20:21:36.354Z,98352.03
2024-03-27T20:24:03.343Z,98345.38
2024-03-27T20:26:30.473Z,98343.63
2024-03-27T20:28:57.325Z,98345.75
2024-03-27T20:31:23.804Z,98350.75
2024-03-27T20:33:50.953Z,98342.44
2024-03-27T20:36:17.544Z,98336.53
2024-03-27T20:38:44.502Z,98330.25
2024-03-27T20:41:11.518Z,98330.94
2024-03-27T20:43:38.239Z,98330.81
2024-03-27T20:46:08.369Z,98326.88
2024-03-27T20:48:35.448Z,98324.16
2024-03-27T20:51:05.125Z,98321.28
2024-03-27T20:53:31.981Z,98321.28
2024-03-27T20:55:58.785Z,98317.75
2024-03-27T20:58:25.561Z,98311.47
2024-03-27T21:00:53.150Z,98317.16
2024-03-27T21:03:20.195Z,98321.75
2024-03-27T21:05:47.290Z,98317.38
2024-03-27T21:08:14.093Z,98319.03
2024-03-27T21:10:49.009Z,98319.03
2024-03-27T21:13:16.322Z,98312.16
2024-03-27T21:15:46.117Z,98315.47
2024-03-27T21:18:13.287Z,98317.16
2024-03-27T21:20:40.007Z,98322.81
2024-03-27T21:23:07.423Z,98306.94
2024-03-27T21:25:34.154Z,98303.06
2024-03-27T21:28:01.131Z,98301.16
2024-03-27T21:30:27.651Z,98308.75
2024-03-27T21:32:54.617Z,98296.91
2024-03-27T21:35:21.528Z,98292.69
2024-03-27T21:37:48.752Z,98294.78
2024-03-27T21:40:15.242Z,98293.72
2024-03-27T21:42:42.316Z,98296.44
2024-03-27T21:45:09.392Z,98289.34
2024-03-27T21:47:36.474Z,98291.47
2024-03-27T21:50:02.957Z,98286.50
2024-03-27T21:52:29.850Z,98278.69
2024-03-27T21:54:57.285Z,98280.09
2024-03-27T21:57:24.359Z,98278.44
2024-03-27T21:59:50.849Z,98282.81
2024-03-27T22:02:17.909Z,98266.28
2024-03-27T22:04:44.769Z,98268.38
2024-03-27T22:07:11.511Z,98269.22
2024-03-27T22:09:37.988Z,98262.81
2024-03-27T22:12:05.417Z,98264.59
2024-03-27T22:14:31.796Z,98254.31
2024-03-27T22:16:58.502Z,98261.66
2024-03-27T22:19:25.140Z,98252.88
2024-03-27T22:21:51.755Z,98256.88
2024-03-27T22:24:20.153Z,98246.38
2024-03-27T22:26:47.745Z,98243.66
2024-03-27T22:29:14.307Z,98250.16
2024-03-27T22:31:41.168Z,98246.59
2024-03-27T22:34:08.455Z,98250.38
2024-03-27T22:36:35.561Z,98250.84
2024-03-27T22:39:01.927Z,98247.91
2024-03-27T22:41:33.095Z,98244.09
2024-03-27T22:43:59.783Z,98237.47
2024-03-27T22:46:26.748Z,98244.56
2024-03-27T22:48:57.275Z,98242.91
2024-03-27T22:51:28.594Z,98232.97
2024-03-27T22:53:55.209Z,98243.50
2024-03-27T22:56:22.347Z,98233.91
2024-03-27T22:58:48.790Z,98230.13
2024-03-27T23:01:18.947Z,98231.88
2024-03-27T23:03:45.572Z,98225.47
2024-03-27T23:06:12.511Z,98232.22
2024-03-27T23:08:38.865Z,98226.31
2024-03-27T23:11:06.020Z,98223.81
2024-03-27T23:13:32.579Z,98226.78
2024-03-27T23:16:00.073Z,98224.75
2024-03-27T23:18:26.582Z,98225.00
2024-03-27T23:20:54.499Z,98220.00
2024-03-27T23:23:20.806Z,98222.25
2024-03-27T23:25:48.025Z,98216.34
2024-03-27T23:28:14.708Z,98219.28
2024-03-27T23:30:43.672Z,98216.34
2024-03-27T23:33:10.015Z,98209.69
2024-03-27T23:35:36.668Z,98203.06
2024-03-27T23:38:03.536Z,98201.19
2024-03-27T23:40:30.497Z,98205.19
2024-03-27T23:42:56.875Z,98203.16
2024-03-27T23:45:23.610Z,98211.19
2024-03-27T23:47:50.553Z,98198.41
2024-03-27T23:50:17.313Z,98186.59
2024-03-27T23:52:43.788Z,98189.53
2024-03-27T23:55:10.534Z,98187.41
2024-03-27T23:57:37.338Z,98194.50
